Time;durP1;ratioP1;P1;durP2;ratioP2;P2;SDS_P1;SDS_P2;PMS_P1;PMS_P2;Temp;Humidity;BMP_temperature;BMP_pressure;BME280_temperature;BME280_humidity;BME280_pressure;Samples;Min_cycle;Max_cycle;Signal;HPM_P1;HPM_P2
2022/09/11 00:01:34;;;;;;;3.05;2.30;;;;;;;17.56;53.91;100932.31;1722528;82;21049;-77
2022/09/11 00:04:02;;;;;;;5.90;2.25;;;;;;;17.67;53.97;100929.45;1739022;82;21025;-77
2022/09/11 00:06:30;;;;;;;8.20;2.40;;;;;;;17.66;54.07;100931.67;1724643;82;21041;-78
2022/09/11 00:09:00;;;;;;;4.22;2.35;;;;;;;17.65;54.42;100929.55;1721799;82;21565;-77
2022/09/11 00:11:31;;;;;;;4.45;2.15;;;;;;;17.62;55.70;100937.58;1721829;82;21052;-77
2022/09/11 00:13:59;;;;;;;7.42;2.20;;;;;;;17.56;55.27;100940.12;1721911;82;21081;-77
2022/09/11 00:16:34;;;;;;;4.00;2.17;;;;;;;17.55;55.38;100948.02;1731970;82;21042;-76
2022/09/11 00:19:09;;;;;;;5.12;2.12;;;;;;;17.48;55.38;100942.40;1732372;82;21573;-76
2022/09/11 00:21:36;;;;;;;5.72;2.22;;;;;;;17.50;55.42;100933.16;1722177;82;21045;-76
2022/09/11 00:24:04;;;;;;;6.08;2.22;;;;;;;17.44;55.22;100934.42;1724536;82;21540;-77
2022/09/11 00:26:31;;;;;;;7.00;2.50;;;;;;;17.47;55.43;100916.47;1723148;82;21100;-76
2022/09/11 00:29:00;;;;;;;4.95;2.25;;;;;;;17.43;55.65;100911.45;1725588;82;21533;-77
2022/09/11 00:31:31;;;;;;;6.92;2.20;;;;;;;17.35;55.70;100915.03;1730329;82;21033;-76
2022/09/11 00:33:58;;;;;;;4.55;2.35;;;;;;;17.25;55.47;100914.44;1731358;82;21049;-76
2022/09/11 00:36:30;;;;;;;4.05;2.40;;;;;;;17.42;55.24;100916.30;1724723;82;21858;-76
2022/09/11 00:38:58;;;;;;;4.08;2.40;;;;;;;17.32;55.16;100925.66;1730297;82;21081;-76
2022/09/11 00:41:37;;;;;;;5.78;2.65;;;;;;;17.46;55.69;100937.77;1729944;82;21064;-76
2022/09/11 00:44:16;;;;;;;4.55;2.10;;;;;;;17.41;55.65;100929.41;1738444;82;21034;-76
2022/09/11 00:46:57;;;;;;;3.52;2.12;;;;;;;17.42;55.73;100924.59;1738850;82;21109;-76
2022/09/11 00:49:35;;;;;;;7.12;2.08;;;;;;;17.31;55.69;100917.94;1738961;82;21021;-75
2022/09/11 00:52:28;;;;;;;4.65;2.30;;;;;;;17.21;55.59;100909.45;1738763;82;21049;-76
2022/09/11 00:55:14;;;;;;;4.20;2.42;;;;;;;17.20;55.62;100907.77;1735711;82;21061;-75
2022/09/11 00:57:46;;;;;;;5.62;2.50;;;;;;;17.31;55.44;100909.66;1721609;82;21080;-75
2022/09/11 01:00:14;;;;;;;3.27;2.30;;;;;;;17.21;55.81;100908.16;1722032;82;21036;-76
2022/09/11 01:02:45;;;;;;;8.15;2.70;;;;;;;17.24;55.83;100911.48;1729422;82;21454;-76
2022/09/11 01:05:15;;;;;;;44.42;3.08;;;;;;;17.24;55.87;100911.48;1702871;83;21081;-75
2022/09/11 01:07:45;;;;;;;6.50;2.60;;;;;;;17.28;56.08;100903.85;1736643;82;21025;-76
2022/09/11 01:10:13;;;;;;;13.13;2.75;;;;;;;17.26;56.08;100909.62;1724837;82;21588;-76
2022/09/11 01:12:55;;;;;;;4.45;2.30;;;;;;;17.18;56.38;100917.45;1724747;82;21093;-75
2022/09/11 01:15:42;;;;;;;8.23;2.60;;;;;;;17.13;55.95;100918.23;1738428;82;21073;-75
2022/09/11 01:18:18;;;;;;;5.90;2.42;;;;;;;17.15;56.14;100918.11;1687253;82;21128;-76
2022/09/11 01:21:23;;;;;;;6.85;2.50;;;;;;;17.11;56.46;100910.99;1741982;82;21530;-76
2022/09/11 01:24:24;;;;;;;4.03;2.55;;;;;;;17.08;56.35;100915.08;1729501;82;21029;-77
2022/09/11 01:27:34;;;;;;;3.90;2.50;;;;;;;17.05;56.38;100899.66;1735635;82;21081;-77
2022/09/11 01:30:17;;;;;;;5.15;2.50;;;;;;;17.02;56.49;100898.58;1738566;82;21057;-76
2022/09/11 01:33:05;;;;;;;7.17;2.52;;;;;;;16.90;56.46;100887.67;1738663;82;20998;-76
2022/09/11 01:36:06;;;;;;;6.92;2.52;;;;;;;16.87;56.71;100891.30;1701005;82;21049;-76
2022/09/11 01:38:50;;;;;;;3.72;2.47;;;;;;;16.76;56.68;100895.84;1722035;83;21021;-76
2022/09/11 01:41:31;;;;;;;5.97;2.50;;;;;;;16.65;57.27;100888.38;1724772;82;21609;-77
2022/09/11 01:44:20;;;;;;;6.62;2.92;;;;;;;16.60;57.33;100880.38;1721829;82;21580;-77
2022/09/11 01:46:51;;;;;;;5.83;2.42;;;;;;;16.58;57.55;100875.75;1703285;82;21076;-76
2022/09/11 01:49:41;;;;;;;7.00;2.60;;;;;;;16.56;57.55;100868.52;1738438;82;21539;-76
2022/09/11 01:52:12;;;;;;;2.65;2.10;;;;;;;16.48;57.61;100864.73;1732884;82;21057;-76
2022/09/11 01:54:46;;;;;;;6.17;2.30;;;;;;;16.59;57.97;100858.41;1723020;82;21041;-76
2022/09/11 01:57:31;;;;;;;7.62;2.60;;;;;;;16.56;58.21;100854.22;1725872;82;21037;-77
2022/09/11 02:00:01;;;;;;;6.12;2.47;;;;;;;16.48;58.52;100847.84;1732747;82;21053;-76
2022/09/11 02:02:34;;;;;;;6.25;2.50;;;;;;;16.50;58.55;100835.12;1726306;82;21037;-77
2022/09/11 02:05:22;;;;;;;5.40;2.25;;;;;;;16.50;58.40;100827.33;1738632;82;21053;-76
2022/09/11 02:08:03;;;;;;;5.70;2.47;;;;;;;16.42;58.70;100823.08;1734468;82;21096;-77
2022/09/11 02:10:45;;;;;;;4.78;2.55;;;;;;;16.39;58.79;100828.48;1732580;82;21069;-76
2022/09/11 02:13:24;;;;;;;4.30;2.52;;;;;;;16.38;58.91;100821.61;1710545;82;21002;-76
2022/09/11 02:15:55;;;;;;;4.55;2.87;;;;;;;16.36;59.23;100826.07;1726401;82;21588;-76
2022/09/11 02:18:31;;;;;;;4.97;2.27;;;;;;;16.36;59.21;100826.07;1726088;82;21573;-76
2022/09/11 02:20:58;;;;;;;7.15;2.40;;;;;;;16.39;59.52;100828.48;1735134;82;21025;-77
2022/09/11 02:23:24;;;;;;;3.30;2.30;;;;;;;16.39;59.55;100829.78;1732344;82;21586;-77
2022/09/11 02:25:52;;;;;;;4.42;2.22;;;;;;;16.31;59.26;100826.37;1724343;82;21056;-76
2022/09/11 02:28:19;;;;;;;3.85;2.33;;;;;;;16.37;59.55;100828.58;1721578;82;21080;-76
2022/09/11 02:30:46;;;;;;;7.40;2.50;;;;;;;16.37;59.79;100823.86;1727573;82;20994;-76
2022/09/11 02:33:34;;;;;;;8.00;2.35;;;;;;;16.35;59.64;100827.02;1735690;82;21096;-76
2022/09/11 02:36:35;;;;;;;3.85;2.30;;;;;;;16.40;59.92;100829.70;1736258;82;21069;-76
2022/09/11 02:39:36;;;;;;;5.45;2.42;;;;;;;16.33;59.78;100828.88;1724527;82;21120;-77
2022/09/11 02:42:35;;;;;;;4.80;2.50;;;;;;;16.33;60.03;100826.28;1721043;82;21604;-77
2022/09/11 02:45:27;;;;;;;7.60;2.40;;;;;;;16.25;60.79;100828.05;1730874;82;21029;-78
2022/09/11 02:48:40;;;;;;;5.33;2.47;;;;;;;16.17;60.73;100815.54;1724132;82;21629;-76
2022/09/11 02:51:24;;;;;;;5.50;2.47;;;;;;;16.20;60.58;100811.47;1738794;82;21014;-77
2022/09/11 02:54:01;;;;;;;;;;;;;;;16.11;61.05;100813.80;1737507;82;21085;-75
2022/09/11 02:56:46;;;;;;;4.83;2.33;;;;;;;16.13;61.14;100812.77;1705871;82;20103;-76
2022/09/11 02:59:33;;;;;;;4.95;2.50;;;;;;;16.06;61.40;100801.55;1720002;82;21084;-75
2022/09/11 03:02:00;;;;;;;4.03;2.05;;;;;;;16.08;61.78;100794.06;1726636;82;20982;-76
2022/09/11 03:04:28;;;;;;;6.25;2.52;;;;;;;16.10;61.73;100794.80;1738591;82;21041;-75
2022/09/11 03:06:58;;;;;;;6.00;2.33;;;;;;;16.10;61.67;100786.15;1731846;82;21045;-75
2022/09/11 03:09:24;;;;;;;7.42;2.58;;;;;;;16.14;61.81;100784.58;1724611;82;21061;-76
2022/09/11 03:11:54;;;;;;;5.03;2.20;;;;;;;16.13;61.93;100793.77;1733435;82;21050;-75
2022/09/11 03:14:21;;;;;;;3.30;2.30;;;;;;;16.09;61.78;100789.22;1728252;82;21422;-75
2022/09/11 03:16:48;;;;;;;4.65;2.20;;;;;;;15.97;61.63;100796.48;1738641;82;21101;-75
2022/09/11 03:19:16;;;;;;;5.62;2.20;;;;;;;16.13;61.49;100791.16;1734544;82;21045;-75
2022/09/11 03:21:43;;;;;;;5.10;2.30;;;;;;;16.21;61.48;100786.32;1727785;82;21061;-75
2022/09/11 03:24:11;;;;;;;7.83;2.42;;;;;;;16.16;61.20;100787.91;1734211;82;21006;-75
2022/09/11 03:26:39;;;;;;;5.80;2.45;;;;;;;16.25;61.24;100795.58;1733108;82;21727;-75
2022/09/11 03:29:07;;;;;;;6.80;2.10;;;;;;;16.24;61.50;100793.94;1721919;82;21029;-75
2022/09/11 03:31:34;;;;;;;3.17;1.95;;;;;;;16.18;61.35;100796.89;1732764;82;21034;-75
2022/09/11 03:34:01;;;;;;;4.40;2.42;;;;;;;16.17;61.33;100792.64;1729347;82;21580;-75
2022/09/11 03:36:29;;;;;;;3.45;1.95;;;;;;;16.25;61.39;100794.28;1738487;82;21025;-76
2022/09/11 03:38:55;;;;;;;4.92;2.50;;;;;;;16.08;61.07;100784.97;1738793;82;21072;-75
2022/09/11 03:41:24;;;;;;;4.03;1.92;;;;;;;16.01;61.18;100769.39;1712831;83;20994;-75
2022/09/11 03:43:51;;;;;;;3.90;1.95;;;;;;;16.14;61.02;100772.04;1720903;82;20982;-75
2022/09/11 03:46:18;;;;;;;5.22;2.37;;;;;;;16.11;61.09;100758.80;1697152;82;21107;-75
2022/09/11 03:48:46;;;;;;;4.37;2.10;;;;;;;16.12;61.08;100764.37;1731853;82;21620;-75
2022/09/11 03:51:14;;;;;;;4.42;2.05;;;;;;;16.20;61.15;100766.02;1729593;82;21033;-75
2022/09/11 03:53:42;;;;;;;2.62;1.87;;;;;;;16.19;60.83;100764.33;1732481;82;21052;-75
2022/09/11 03:56:11;;;;;;;5.50;2.27;;;;;;;16.16;61.18;100756.75;1738666;82;21069;-76
2022/09/11 03:58:39;;;;;;;7.40;2.27;;;;;;;16.19;60.89;100750.52;1733381;82;21041;-77
2022/09/11 04:01:17;;;;;;;3.92;1.90;;;;;;;16.18;61.08;100741.05;1735985;82;21064;-75
2022/09/11 04:03:44;;;;;;;4.28;2.20;;;;;;;16.24;60.72;100745.87;1734583;82;21521;-76
2022/09/11 04:06:13;;;;;;;5.05;2.05;;;;;;;16.28;60.86;100734.36;1723865;82;21045;-76
2022/09/11 04:08:40;;;;;;;4.58;2.10;;;;;;;16.28;60.75;100737.40;1722067;82;20998;-75
2022/09/11 04:11:10;;;;;;;4.50;2.20;;;;;;;16.25;61.05;100730.64;1731840;82;21099;-76
2022/09/11 04:13:40;;;;;;;3.27;2.27;;;;;;;16.24;60.46;100726.40;1719775;82;21031;-76
2022/09/11 04:16:14;;;;;;;2.80;2.05;;;;;;;16.25;60.74;100729.82;1732437;82;21506;-75
2022/09/11 04:18:44;;;;;;;2.95;2.00;;;;;;;16.34;60.56;100721.41;1722096;82;21119;-75
2022/09/11 04:21:15;;;;;;;4.83;1.80;;;;;;;16.28;61.09;100724.41;1721955;82;21085;-75
2022/09/11 04:23:44;;;;;;;6.05;1.92;;;;;;;16.30;61.44;100726.00;1736335;82;21061;-76
2022/09/11 04:26:20;;;;;;;4.45;1.90;;;;;;;16.34;61.42;100720.12;1738855;82;21116;-75
2022/09/11 04:28:49;;;;;;;2.58;1.80;;;;;;;16.30;61.57;100719.95;1725353;82;21049;-75
2022/09/11 04:31:17;;;;;;;4.97;1.90;;;;;;;16.34;61.98;100721.41;1721799;82;21088;-75
2022/09/11 04:33:45;;;;;;;3.40;2.02;;;;;;;16.29;61.22;100725.62;1721813;82;21109;-75
2022/09/11 04:36:17;;;;;;;2.40;1.65;;;;;;;16.35;61.50;100725.22;1735016;82;21037;-75
2022/09/11 04:38:46;;;;;;;3.72;1.90;;;;;;;16.30;61.00;100727.74;1723843;82;21081;-75
2022/09/11 04:41:15;;;;;;;4.95;2.10;;;;;;;16.31;61.37;100719.03;1730962;82;21022;-75
2022/09/11 04:43:43;;;;;;;5.17;1.90;;;;;;;16.42;61.02;100720.00;1731033;82;21073;-75
2022/09/11 04:46:14;;;;;;;4.70;2.10;;;;;;;16.48;60.98;100723.95;1727425;82;21080;-75
2022/09/11 04:48:50;;;;;;;7.00;2.00;;;;;;;16.39;60.91;100712.88;1727584;82;21073;-76
2022/09/11 04:51:29;;;;;;;6.87;2.10;;;;;;;16.30;60.60;100712.16;1728902;82;21639;-75
2022/09/11 04:53:58;;;;;;;4.53;1.85;;;;;;;16.46;60.87;100717.19;1739364;82;20970;-76
2022/09/11 04:56:31;;;;;;;4.95;2.22;;;;;;;16.62;61.28;100725.17;1732952;82;22221;-75
2022/09/11 04:59:02;;;;;;;4.70;1.95;;;;;;;16.50;61.26;100725.16;1730917;82;21041;-75
2022/09/11 05:01:32;;;;;;;3.35;1.90;;;;;;;16.67;61.68;100727.96;1728557;82;21030;-76
2022/09/11 05:04:00;;;;;;;4.50;2.10;;;;;;;16.75;61.96;100734.31;1732262;82;21073;-75
2022/09/11 05:06:29;;;;;;;4.67;2.37;;;;;;;16.85;61.82;100733.27;1733589;82;21049;-75
2022/09/11 05:09:05;;;;;;;3.58;1.90;;;;;;;16.91;61.26;100739.36;1727790;82;21033;-76
2022/09/11 05:11:37;;;;;;;2.50;1.90;;;;;;;17.00;61.27;100736.12;1741238;82;21009;-76
2022/09/11 05:14:05;;;;;;;4.15;2.22;;;;;;;17.09;61.51;100741.63;1720059;82;21537;-75
2022/09/11 05:16:36;;;;;;;3.27;1.75;;;;;;;17.08;61.74;100746.02;1732219;82;21080;-76
2022/09/11 05:19:04;;;;;;;3.37;2.08;;;;;;;17.14;61.42;100741.70;1731919;82;21034;-76
2022/09/11 05:21:33;;;;;;;7.08;2.00;;;;;;;17.16;60.91;100744.20;1740949;81;21037;-75
2022/09/11 05:24:02;;;;;;;3.52;2.02;;;;;;;17.18;60.98;100739.25;1746606;81;21043;-75
2022/09/11 05:26:34;;;;;;;3.47;2.20;;;;;;;17.28;61.19;100734.25;1748262;81;21537;-75
2022/09/11 05:29:13;;;;;;;2.40;1.72;;;;;;;17.34;60.97;100733.83;1744221;81;21028;-75
2022/09/11 05:31:46;;;;;;;7.45;2.60;;;;;;;17.42;60.68;100741.11;1747817;81;20984;-75
2022/09/11 05:34:16;;;;;;;5.42;2.40;;;;;;;17.51;60.71;100745.66;1739731;81;21093;-75
2022/09/11 05:36:42;;;;;;;4.47;2.10;;;;;;;17.49;60.31;100729.80;1740757;81;21074;-76
2022/09/11 05:39:09;;;;;;;5.20;2.35;;;;;;;17.54;60.10;100723.81;1742467;81;20995;-76
2022/09/11 05:41:37;;;;;;;4.85;2.22;;;;;;;17.52;59.93;100720.02;1725189;82;21071;-75
2022/09/11 05:44:04;;;;;;;5.62;2.10;;;;;;;17.58;60.07;100724.79;1740979;82;21024;-75
2022/09/11 05:46:33;;;;;;;4.33;2.37;;;;;;;17.63;60.33;100725.28;1737618;82;21508;-76
2022/09/11 05:49:02;;;;;;;4.58;2.33;;;;;;;17.66;60.62;100722.10;1739304;82;21074;-75
2022/09/11 05:51:29;;;;;;;5.22;2.58;;;;;;;17.65;60.18;100714.77;1730368;82;21083;-75
2022/09/11 05:53:57;;;;;;;4.30;2.40;;;;;;;17.56;60.45;100709.75;1738467;82;21032;-76
2022/09/11 05:56:27;;;;;;;5.85;2.30;;;;;;;17.55;60.58;100700.73;1736368;82;21504;-76
2022/09/11 05:58:56;;;;;;;4.33;2.40;;;;;;;17.57;60.18;100706.19;1739145;82;21052;-76
2022/09/11 06:01:27;;;;;;;5.40;2.35;;;;;;;17.52;60.13;100697.89;1740785;81;21026;-76
2022/09/11 06:03:56;;;;;;;4.30;2.25;;;;;;;17.50;60.10;100699.77;1737965;82;21212;-75
2022/09/11 06:06:25;;;;;;;3.37;2.10;;;;;;;17.57;60.44;100697.08;1736002;82;21029;-76
2022/09/11 06:08:52;;;;;;;3.30;2.27;;;;;;;17.63;60.34;100694.05;1733649;82;21045;-75
2022/09/11 06:11:21;;;;;;;7.72;2.65;;;;;;;17.76;60.21;100692.72;1721524;82;21517;-75
2022/09/11 06:13:49;;;;;;;3.55;2.10;;;;;;;17.89;61.07;100690.09;1733652;82;21042;-75
2022/09/11 06:16:21;;;;;;;5.37;2.37;;;;;;;18.04;60.83;100683.41;1736481;82;20998;-76
2022/09/11 06:18:50;;;;;;;2.98;2.15;;;;;;;17.95;60.00;100675.33;1737032;82;21121;-75
2022/09/11 06:21:23;;;;;;;8.10;2.55;;;;;;;17.95;59.91;100679.71;1727756;82;21083;-74
2022/09/11 06:23:52;;;;;;;3.83;2.50;;;;;;;17.99;59.40;100673.34;1723510;82;21045;-74
2022/09/11 06:26:26;;;;;;;3.45;2.45;;;;;;;18.14;59.74;100670.08;1721530;82;21473;-75
2022/09/11 06:28:53;;;;;;;4.75;2.10;;;;;;;17.91;59.16;100677.80;1721634;82;21064;-76
2022/09/11 06:31:24;;;;;;;7.17;2.30;;;;;;;18.17;59.73;100669.38;1727547;82;21057;-74
2022/09/11 06:33:52;;;;;;;3.37;2.33;;;;;;;18.17;59.34;100665.48;1721794;82;21033;-76
2022/09/11 06:36:23;;;;;;;6.80;2.50;;;;;;;18.17;59.58;100656.84;1730574;82;21083;-76
2022/09/11 06:38:56;;;;;;;7.45;2.83;;;;;;;18.23;59.53;100657.69;1692727;82;21061;-75
2022/09/11 06:41:26;;;;;;;5.25;2.37;;;;;;;17.94;59.39;100648.08;1728042;82;21081;-76
2022/09/11 06:43:54;;;;;;;4.30;2.55;;;;;;;17.96;59.43;100649.66;1726049;82;21041;-75
2022/09/11 06:46:24;;;;;;;5.65;2.50;;;;;;;18.13;59.80;100646.28;1733821;82;21064;-76
2022/09/11 06:48:54;;;;;;;5.75;2.20;;;;;;;18.09;59.48;100650.87;1721351;82;21088;-75
2022/09/11 06:51:23;;;;;;;6.55;2.40;;;;;;;18.32;59.91;100647.87;1730779;82;21100;-75
2022/09/11 06:53:56;;;;;;;4.70;2.37;;;;;;;18.08;60.59;100641.39;1721774;82;21101;-75
2022/09/11 06:56:25;;;;;;;8.33;2.50;;;;;;;18.32;60.24;100647.05;1702213;83;21028;-76
2022/09/11 06:58:52;;;;;;;4.67;2.50;;;;;;;18.18;59.38;100630.64;1721297;82;21018;-76
2022/09/11 07:01:22;;;;;;;5.12;2.60;;;;;;;18.20;59.99;100633.14;1728362;82;21108;-75
2022/09/11 07:03:53;;;;;;;6.72;2.30;;;;;;;18.05;59.79;100636.90;1738347;82;21057;-75
2022/09/11 07:06:24;;;;;;;7.92;2.50;;;;;;;18.33;60.39;100630.45;1738653;82;21587;-75
2022/09/11 07:09:01;;;;;;;7.58;2.55;;;;;;;18.52;59.69;100641.64;1710385;82;21087;-75
2022/09/11 07:11:33;;;;;;;6.67;2.70;;;;;;;18.66;59.31;100649.73;1712975;82;21593;-75
2022/09/11 07:14:04;;;;;;;4.83;2.50;;;;;;;18.57;59.11;100661.66;1734179;82;21013;-75
2022/09/11 07:16:32;;;;;;;4.03;2.62;;;;;;;18.42;58.85;100672.30;1735356;82;21089;-75
2022/09/11 07:19:02;;;;;;;3.30;2.40;;;;;;;18.61;59.22;100673.52;1723366;82;21081;-75
2022/09/11 07:21:30;;;;;;;7.40;2.60;;;;;;;18.77;58.97;100671.89;1735463;82;21080;-74
2022/09/11 07:24:01;;;;;;;7.53;2.55;;;;;;;18.83;59.62;100674.07;1738726;82;21084;-75
2022/09/11 07:26:30;;;;;;;5.67;2.77;;;;;;;18.84;59.92;100682.27;1738130;82;21068;-75
2022/09/11 07:28:59;;;;;;;4.12;2.30;;;;;;;18.77;58.71;100678.41;1738336;82;21073;-75
2022/09/11 07:31:29;;;;;;;9.33;3.02;;;;;;;18.92;59.22;100677.77;1738417;82;21077;-75
2022/09/11 07:33:56;;;;;;;6.70;2.62;;;;;;;18.72;59.87;100674.04;1738719;82;21470;-74
2022/09/11 07:36:31;;;;;;;5.87;2.65;;;;;;;18.87;60.27;100673.37;1729692;82;21033;-75
2022/09/11 07:38:58;;;;;;;;;;;;;;;18.60;59.12;100673.19;1699489;82;21037;-75
2022/09/11 07:41:28;;;;;;;6.20;2.30;;;;;;;18.70;60.40;100664.20;1741139;82;20383;-75
2022/09/11 07:44:05;;;;;;;8.73;2.60;;;;;;;18.66;59.93;100660.16;1734727;82;21046;-75
2022/09/11 07:46:29;;;;;;;5.97;2.58;;;;;;;18.73;60.66;100655.64;1729978;82;21061;-75
2022/09/11 07:49:00;;;;;;;4.37;2.40;;;;;;;18.46;60.29;100653.36;1729003;82;21588;-74
2022/09/11 07:51:28;;;;;;;5.90;2.80;;;;;;;18.48;60.18;100653.25;1726307;82;21053;-74
2022/09/11 07:53:58;;;;;;;10.72;2.70;;;;;;;18.74;60.30;100653.89;1732310;82;21056;-74
2022/09/11 07:56:29;;;;;;;3.92;2.60;;;;;;;18.67;60.41;100652.20;1735316;82;21038;-74
2022/09/11 07:58:56;;;;;;;5.85;2.45;;;;;;;18.86;60.74;100647.77;1728591;82;21076;-74
2022/09/11 08:01:30;;;;;;;7.87;2.70;;;;;;;18.71;59.47;100641.89;1730926;82;21034;-75
2022/09/11 08:04:00;;;;;;;8.53;2.62;;;;;;;18.65;59.79;100644.15;1725589;82;21049;-74
2022/09/11 08:06:31;;;;;;;7.47;2.62;;;;;;;18.92;60.41;100649.91;1736258;82;21136;-75
2022/09/11 08:09:05;;;;;;;3.95;2.40;;;;;;;18.92;59.87;100640.77;1721805;82;21049;-75
2022/09/11 08:11:40;;;;;;;5.85;2.70;;;;;;;18.86;60.29;100638.64;1723911;82;21014;-76
2022/09/11 08:14:10;;;;;;;5.78;2.50;;;;;;;18.58;61.01;100643.31;1737712;82;21073;-74
2022/09/11 08:16:37;;;;;;;7.45;2.60;;;;;;;18.71;61.22;100645.80;1733474;82;21159;-75
2022/09/11 08:19:06;;;;;;;5.50;2.65;;;;;;;18.88;61.48;100649.78;1726231;82;21088;-76
2022/09/11 08:21:33;;;;;;;5.20;2.60;;;;;;;18.90;61.64;100654.41;1722208;82;21525;-75
2022/09/11 08:24:02;;;;;;;8.20;2.70;;;;;;;18.85;61.43;100647.39;1730521;82;21057;-75
2022/09/11 08:26:30;;;;;;;6.17;2.55;;;;;;;18.68;61.46;100644.75;1721932;82;21571;-75
2022/09/11 08:29:03;;;;;;;6.33;2.70;;;;;;;18.60;60.92;100641.41;1724618;82;21045;-74
2022/09/11 08:31:29;;;;;;;4.95;3.02;;;;;;;18.43;61.86;100637.96;1733165;82;21045;-75
2022/09/11 08:33:58;;;;;;;9.53;3.42;;;;;;;18.57;62.42;100637.75;1732548;82;21033;-75
2022/09/11 08:36:28;;;;;;;5.87;2.40;;;;;;;18.69;62.32;100641.66;1738553;82;21069;-74
2022/09/11 08:39:01;;;;;;;5.62;2.50;;;;;;;18.70;62.09;100632.42;1735506;82;21009;-75
2022/09/11 08:41:33;;;;;;;4.72;2.67;;;;;;;18.59;61.53;100631.09;1726267;82;21013;-74
2022/09/11 08:44:13;;;;;;;10.32;2.62;;;;;;;18.69;62.39;100625.53;1724510;82;21047;-76
2022/09/11 08:46:45;;;;;;;6.20;2.50;;;;;;;18.54;61.77;100614.51;1721794;82;21045;-75
2022/09/11 08:49:26;;;;;;;8.20;2.85;;;;;;;18.60;61.46;100604.91;1729893;82;21092;-74
2022/09/11 08:51:57;;;;;;;6.72;2.40;;;;;;;18.68;61.82;100603.03;1731210;82;21205;-73
2022/09/11 08:54:37;;;;;;;6.10;2.33;;;;;;;18.65;61.96;100601.95;1704732;83;21076;-74
2022/09/11 08:57:29;;;;;;;6.37;2.37;;;;;;;18.86;62.29;100598.21;1741510;82;21519;-75
2022/09/11 09:00:06;;;;;;;7.00;2.50;;;;;;;18.97;61.70;100599.97;1717329;82;21052;-74
2022/09/11 09:02:55;;;;;;;7.55;2.58;;;;;;;18.89;61.98;100608.88;1730201;82;21049;-74
2022/09/11 09:05:52;;;;;;;12.45;2.55;;;;;;;18.96;63.36;100614.80;1733601;82;21058;-73
2022/09/11 09:08:40;;;;;;;6.22;2.90;;;;;;;19.16;65.06;100618.92;1723882;82;21356;-74
2022/09/11 09:11:34;;;;;;;9.95;3.27;;;;;;;18.58;65.79;100600.29;1725390;82;21044;-74
2022/09/11 09:14:07;;;;;;;5.90;3.10;;;;;;;18.28;68.57;100603.92;1721074;82;21093;-73
2022/09/11 09:16:59;;;;;;;7.95;3.20;;;;;;;18.45;72.66;100617.83;1725033;82;21030;-75
2022/09/11 09:19:59;;;;;;;106.45;5.55;;;;;;;18.48;76.14;100621.48;1724385;82;21076;-74
2022/09/11 09:22:44;;;;;;;5.70;2.83;;;;;;;18.45;77.00;100608.70;1737806;82;22608;-75
2022/09/11 09:25:16;;;;;;;6.17;3.17;;;;;;;18.47;75.60;100596.39;1694925;82;21041;-74
2022/09/11 09:27:48;;;;;;;6.62;4.05;;;;;;;18.44;79.37;100596.60;1722327;82;21053;-74
2022/09/11 09:30:23;;;;;;;8.15;3.35;;;;;;;18.24;83.00;100598.09;1722049;82;21604;-74
2022/09/11 09:33:05;;;;;;;9.55;3.17;;;;;;;18.18;85.18;100596.77;1738668;82;21116;-74
2022/09/11 09:35:43;;;;;;;9.85;4.35;;;;;;;18.14;88.32;100601.86;1738831;82;21052;-74
2022/09/11 09:38:20;;;;;;;12.55;3.87;;;;;;;17.92;91.02;100594.80;1732192;82;21077;-73
2022/09/11 09:41:14;;;;;;;10.10;3.55;;;;;;;18.01;95.03;100602.42;1719933;82;21013;-73
2022/09/11 09:44:03;;;;;;;8.00;2.93;;;;;;;18.06;99.87;100608.59;1694800;82;21060;-73
2022/09/11 09:46:47;;;;;;;9.08;2.60;;;;;;;17.80;98.52;100600.42;1723234;82;21569;-74
2022/09/11 09:49:21;;;;;;;6.83;2.67;;;;;;;17.66;100.00;100593.23;1731156;82;21061;-73
2022/09/11 09:51:48;;;;;;;5.30;2.90;;;;;;;17.67;100.00;100587.11;1765577;81;21008;-74
2022/09/11 09:54:22;;;;;;;5.05;3.05;;;;;;;17.88;100.00;100582.95;1744000;81;21504;-74
2022/09/11 09:57:05;;;;;;;8.80;2.90;;;;;;;17.92;100.00;100559.64;1744843;81;21068;-74
2022/09/11 09:59:46;;;;;;;6.87;3.15;;;;;;;18.01;100.00;100552.45;1750565;81;21591;-73
2022/09/11 10:02:34;;;;;;;6.22;3.02;;;;;;;17.92;98.65;100521.87;1745316;81;21051;-74
2022/09/11 10:05:21;;;;;;;5.37;3.08;;;;;;;17.88;100.00;100507.42;1747656;81;21010;-74
2022/09/11 10:07:58;;;;;;;8.38;2.85;;;;;;;17.93;100.00;100504.02;1747557;81;21056;-74
2022/09/11 10:10:36;;;;;;;9.10;3.20;;;;;;;17.99;100.00;100504.03;1739367;81;21587;-74
2022/09/11 10:13:08;;;;;;;9.50;2.87;;;;;;;17.95;100.00;100511.24;1752951;80;21567;-73
2022/09/11 10:15:39;;;;;;;9.03;3.37;;;;;;;17.95;100.00;100498.70;1740775;82;21052;-73
2022/09/11 10:18:36;;;;;;;7.03;3.40;;;;;;;18.21;100.00;100494.13;1677566;84;21584;-73
2022/09/11 10:21:21;;;;;;;6.87;3.33;;;;;;;18.32;99.23;100502.41;1670428;84;21421;-73
2022/09/11 10:23:59;;;;;;;18.05;4.28;;;;;;;18.46;99.92;100518.30;1683806;84;21136;-74
2022/09/11 10:26:46;;;;;;;24.75;4.42;;;;;;;18.48;100.00;100517.22;1766524;81;21028;-74
2022/09/11 10:29:28;;;;;;;25.02;4.87;;;;;;;18.48;100.00;100513.31;1751169;81;21512;-74
2022/09/11 10:32:01;;;;;;;12.23;4.40;;;;;;;18.46;100.00;100512.60;1768420;81;21027;-74
2022/09/11 10:34:37;;;;;;;9.68;4.12;;;;;;;18.56;100.00;100507.03;1767427;81;21014;-73
2022/09/11 10:37:15;;;;;;;7.20;4.12;;;;;;;18.66;100.00;100486.77;1752153;81;21012;-75
2022/09/11 10:39:46;;;;;;;15.55;4.60;;;;;;;18.76;100.00;100479.40;1725096;82;21009;-75
2022/09/11 10:42:21;;;;;;;8.05;3.83;;;;;;;18.83;100.00;100471.13;1724096;82;21067;-74
2022/09/11 10:44:51;;;;;;;13.22;4.50;;;;;;;18.97;100.00;100470.84;1703077;84;21066;-74
2022/09/11 10:47:30;;;;;;;11.12;3.83;;;;;;;18.98;100.00;100477.25;1724455;82;21078;-75
2022/09/11 10:50:21;;;;;;;10.72;3.80;;;;;;;19.11;100.00;100474.48;1749241;80;21110;-75
2022/09/11 10:53:19;;;;;;;7.70;4.08;;;;;;;19.23;100.00;100480.49;1770840;81;21031;-75
2022/09/11 10:55:51;;;;;;;11.05;4.62;;;;;;;19.60;100.00;100477.48;1761593;81;21073;-75
2022/09/11 10:58:23;;;;;;;14.50;5.28;;;;;;;19.96;100.00;100466.27;1748386;81;21031;-74
2022/09/11 11:00:50;;;;;;;13.03;5.10;;;;;;;20.38;99.16;100453.93;1769069;81;21560;-74
2022/09/11 11:03:22;;;;;;;10.05;5.33;;;;;;;20.74;97.37;100450.42;1757033;81;21049;-74
2022/09/11 11:06:07;;;;;;;9.33;4.85;;;;;;;20.98;94.42;100457.86;1765131;81;21031;-74
2022/09/11 11:08:58;;;;;;;;;;;;;;;21.21;94.32;100461.06;1762491;81;21022;-75
2022/09/11 11:11:52;;;;;;;8.08;4.45;;;;;;;21.58;91.92;100468.72;1731107;82;20133;-73
2022/09/11 11:14:53;;;;;;;9.93;4.80;;;;;;;21.89;95.92;100470.64;1759995;81;21040;-75
2022/09/11 11:17:58;;;;;;;11.45;5.05;;;;;;;22.04;93.94;100467.57;1728321;82;21063;-74
2022/09/11 11:21:06;;;;;;;11.55;4.97;;;;;;;21.90;89.18;100459.70;1738042;82;21028;-74
2022/09/11 11:24:05;;;;;;;13.62;6.28;;;;;;;21.80;90.70;100463.16;1749047;81;21004;-74
2022/09/11 11:26:54;;;;;;;10.68;5.47;;;;;;;21.91;89.04;100462.16;1751334;81;21602;-74
2022/09/11 11:29:41;;;;;;;11.12;5.03;;;;;;;21.86;91.19;100453.91;1721831;82;21558;-74
2022/09/11 11:32:32;;;;;;;6.83;4.58;;;;;;;22.08;89.47;100461.92;1752923;81;21026;-74
2022/09/11 11:35:04;;;;;;;8.08;4.15;;;;;;;22.11;91.33;100445.89;1710712;81;21081;-74
2022/09/11 11:37:35;;;;;;;6.12;3.90;;;;;;;21.98;86.41;100440.98;1762245;81;21065;-74
2022/09/11 11:40:26;;;;;;;6.37;3.55;;;;;;;21.84;86.24;100433.58;1726032;81;21094;-74
2022/09/11 11:43:04;;;;;;;6.55;3.70;;;;;;;21.87;84.65;100432.45;1758299;81;21063;-76
2022/09/11 11:45:39;;;;;;;7.25;3.67;;;;;;;22.23;82.64;100422.94;1721581;82;21538;-74
2022/09/11 11:48:17;;;;;;;6.42;3.62;;;;;;;22.18;83.75;100427.77;1742309;81;21007;-74
2022/09/11 11:50:54;;;;;;;10.50;3.72;;;;;;;21.85;80.62;100433.08;1720338;82;21016;-73
2022/09/11 11:53:38;;;;;;;7.85;3.27;;;;;;;22.01;83.54;100431.99;1769366;81;20969;-74
2022/09/11 11:56:13;;;;;;;;;;;;;;;22.12;80.75;100438.38;1760867;81;21063;-74
2022/09/11 11:58:58;;;;;;;10.68;4.58;;;;;;;22.39;79.68;100431.02;1727629;81;20112;-75
2022/09/11 12:01:49;;;;;;;9.50;4.40;;;;;;;22.41;81.39;100426.95;1767475;81;21070;-74